createdAt,value
2019-04-05T00:00:57.354Z,1001.82
2019-04-05T00:01:57.349Z,1001.90
2019-04-05T00:02:57.342Z,1001.90
2019-04-05T00:03:57.347Z,1001.90
2019-04-05T00:04:57.353Z,1001.94
2019-04-05T00:05:57.297Z,1001.89
2019-04-05T00:06:57.287Z,1001.94
2019-04-05T00:07:57.287Z,1001.93
2019-04-05T00:08:57.292Z,1001.88
2019-04-05T00:09:57.250Z,1001.90
2019-04-05T00:10:57.276Z,1001.93
2019-04-05T00:11:57.260Z,1001.91
2019-04-05T00:12:57.221Z,1001.96
2019-04-05T00:13:57.211Z,1002.00
2019-04-05T00:14:57.193Z,1001.94
2019-04-05T00:15:57.213Z,1001.98
2019-04-05T00:16:57.183Z,1001.99
2019-04-05T00:17:57.165Z,1001.99
2019-04-05T00:18:57.152Z,1002.07
2019-04-05T00:19:57.138Z,1002.04
2019-04-05T00:20:57.129Z,1002.06
2019-04-05T00:21:57.140Z,1002.08
2019-04-05T00:22:57.127Z,1002.07
2019-04-05T00:23:57.255Z,1002.04
2019-04-05T00:24:57.090Z,1002.06
2019-04-05T00:25:57.079Z,1002.09
2019-04-05T00:26:57.130Z,1002.05
2019-04-05T00:27:57.081Z,1002.03
2019-04-05T00:28:57.040Z,1002.05
2019-04-05T00:29:57.033Z,1001.99
2019-04-05T00:30:57.018Z,1002.02
2019-04-05T00:31:57.010Z,1001.98
2019-04-05T00:32:56.999Z,1001.92
2019-04-05T00:33:57.043Z,1001.93
2019-04-05T00:34:56.987Z,1001.96
2019-04-05T00:35:56.985Z,1001.96
2019-04-05T00:36:56.965Z,1001.94
2019-04-05T00:37:56.944Z,1001.99
2019-04-05T00:38:56.934Z,1001.89
2019-04-05T00:39:56.924Z,1001.83
2019-04-05T00:40:56.934Z,1001.85
2019-04-05T00:41:56.923Z,1001.91
2019-04-05T00:42:56.890Z,1001.91
2019-04-05T00:43:56.879Z,1001.86
2019-04-05T00:44:56.870Z,1001.84
2019-04-05T00:45:56.878Z,1001.90
2019-04-05T00:46:56.873Z,1001.90
2019-04-05T00:47:56.853Z,1001.91
2019-04-05T00:48:56.825Z,1001.96
2019-04-05T00:49:56.809Z,1001.94
2019-04-05T00:50:57.721Z,1001.90
2019-04-05T00:51:56.785Z,1001.90
2019-04-05T00:52:56.794Z,1001.85
2019-04-05T00:53:56.768Z,1001.84
2019-04-05T00:54:56.758Z,1001.85
2019-04-05T00:55:56.746Z,1001.85
2019-04-05T00:56:56.726Z,1001.84
2019-04-05T00:57:57.213Z,1001.83
2019-04-05T00:58:56.710Z,1001.85
2019-04-05T00:59:56.698Z,1001.79
2019-04-05T01:00:56.685Z,1001.88
2019-04-05T01:01:56.677Z,1001.86
2019-04-05T01:02:56.665Z,1001.83
2019-04-05T01:03:56.678Z,1001.83
2019-04-05T01:04:56.642Z,1001.78
2019-04-05T01:05:56.630Z,1001.79
2019-04-05T01:06:56.734Z,1001.82
2019-04-05T01:07:56.627Z,1001.77
2019-04-05T01:08:56.604Z,1001.83
2019-04-05T01:09:56.722Z,1001.80
2019-04-05T01:10:56.573Z,1001.76
2019-04-05T01:11:56.566Z,1001.79
2019-04-05T01:12:56.626Z,1001.77
2019-04-05T01:13:56.554Z,1001.78
2019-04-05T01:14:56.557Z,1001.79
2019-04-05T01:15:56.514Z,1001.79
2019-04-05T01:16:56.511Z,1001.86
2019-04-05T01:17:56.493Z,1001.83
2019-04-05T01:18:56.506Z,1001.84
2019-04-05T01:19:56.474Z,1001.83
2019-04-05T01:20:56.465Z,1001.87
2019-04-05T01:21:56.482Z,1001.80
2019-04-05T01:22:56.444Z,1001.82
2019-04-05T01:23:56.431Z,1001.82
2019-04-05T01:24:56.419Z,1001.88
2019-04-05T01:25:56.410Z,1001.89
2019-04-05T01:26:56.419Z,1001.83
2019-04-05T01:27:56.385Z,1001.81
2019-04-05T01:28:56.375Z,1001.84
2019-04-05T01:29:56.361Z,1001.78
2019-04-05T01:30:56.390Z,1001.78
2019-04-05T01:31:56.374Z,1001.86
2019-04-05T01:32:56.335Z,1001.87
2019-04-05T01:33:56.384Z,1001.82
2019-04-05T01:34:56.308Z,1001.87
2019-04-05T01:35:56.307Z,1001.87
2019-04-05T01:36:56.289Z,1001.83
2019-04-05T01:37:56.279Z,1001.85
2019-04-05T01:38:56.301Z,1001.85
2019-04-05T01:39:56.253Z,1001.90
2019-04-05T01:40:56.240Z,1001.84
2019-04-05T01:41:56.226Z,1001.90
2019-04-05T01:42:56.217Z,1001.92
2019-04-05T01:43:56.206Z,1001.89
2019-04-05T01:44:56.225Z,1001.91
2019-04-05T01:45:56.191Z,1001.92
2019-04-05T01:46:56.171Z,1001.98
2019-04-05T01:47:56.161Z,1001.98
2019-04-05T01:48:56.150Z,1001.96
2019-04-05T01:49:56.212Z,1001.96
2019-04-05T01:50:56.151Z,1001.97
2019-04-05T01:51:56.118Z,1002.02
2019-04-05T01:52:56.107Z,1002.05
2019-04-05T01:53:56.099Z,1002.00
2019-04-05T01:54:56.111Z,1002.05
2019-04-05T01:55:56.094Z,1002.16
2019-04-05T01:56:56.061Z,1002.10
2019-04-05T01:57:56.050Z,1002.14
2019-04-05T01:59:03.710Z,1002.16
2019-04-05T01:59:56.036Z,1002.19
2019-04-05T02:00:56.021Z,1002.20
2019-04-05T02:01:56.033Z,1002.15
2019-04-05T02:02:56.001Z,1002.20
2019-04-05T02:03:56.414Z,1002.18
2019-04-05T02:04:56.070Z,1002.22
2019-04-05T02:05:56.020Z,1002.24
2019-04-05T02:06:55.975Z,1002.19
2019-04-05T02:07:55.938Z,1002.18
2019-04-05T02:08:55.931Z,1002.14
2019-04-05T02:09:55.929Z,1002.19
2019-04-05T02:10:55.908Z,1002.17
2019-04-05T02:11:55.900Z,1002.22
2019-04-05T02:12:55.921Z,1002.23
2019-04-05T02:13:55.948Z,1002.25
2019-04-05T02:14:55.867Z,1002.29
2019-04-05T02:16:05.726Z,1002.27
2019-04-05T02:16:56.841Z,1002.30
2019-04-05T02:17:55.837Z,1002.21
2019-04-05T02:18:55.849Z,1002.27
2019-04-05T02:19:55.806Z,1002.20
2019-04-05T02:20:55.798Z,1002.19
2019-04-05T02:21:55.785Z,1002.18
2019-04-05T02:22:55.771Z,1002.23
2019-04-05T02:23:55.787Z,1002.21
2019-04-05T02:24:55.765Z,1002.23
2019-04-05T02:25:56.327Z,1002.25
2019-04-05T02:26:56.775Z,1002.20
2019-04-05T02:27:55.749Z,1002.24
2019-04-05T02:28:55.710Z,1002.20
2019-04-05T02:29:55.760Z,1002.15
2019-04-05T02:30:55.687Z,1002.12
2019-04-05T02:31:55.670Z,1002.27
2019-04-05T02:32:55.673Z,1002.16
2019-04-05T02:33:55.693Z,1002.16
2019-04-05T02:34:55.648Z,1002.12
2019-04-05T02:35:55.663Z,1002.13
2019-04-05T02:36:55.619Z,1002.10
2019-04-05T02:37:55.614Z,1002.10
2019-04-05T02:38:55.599Z,1002.07
2019-04-05T02:39:55.618Z,1002.11
2019-04-05T02:40:58.440Z,1002.12
2019-04-05T02:41:55.606Z,1002.06
2019-04-05T02:42:55.580Z,1002.15
2019-04-05T02:43:55.582Z,1002.11
2019-04-05T02:44:55.541Z,1002.07
2019-04-05T02:45:56.294Z,1002.03
2019-04-05T02:46:55.558Z,1002.06
2019-04-05T02:47:55.508Z,1001.99
2019-04-05T02:48:55.495Z,1001.98
2019-04-05T02:49:55.476Z,1001.95
2019-04-05T02:50:55.503Z,1002.00
2019-04-05T02:51:55.505Z,1001.97
2019-04-05T02:52:55.482Z,1001.94
2019-04-05T02:53:55.448Z,1001.99
2019-04-05T02:54:55.428Z,1001.96
2019-04-05T02:55:55.416Z,1001.97
2019-04-05T02:56:55.458Z,1002.04
2019-04-05T02:57:55.381Z,1001.98
2019-04-05T02:58:55.405Z,1002.02
2019-04-05T02:59:55.363Z,1002.04
2019-04-05T03:00:55.361Z,1002.07
2019-04-05T03:01:55.341Z,1002.11
2019-04-05T03:02:55.336Z,1002.05
2019-04-05T03:03:55.318Z,1002.10
2019-04-05T03:04:55.324Z,1002.06
2019-04-05T03:05:55.310Z,1002.05
2019-04-05T03:06:55.444Z,1002.10
2019-04-05T03:07:55.309Z,1002.13
2019-04-05T03:08:55.272Z,1002.06
2019-04-05T03:09:55.312Z,1002.10
2019-04-05T03:10:55.249Z,1002.11
2019-04-05T03:11:55.310Z,1002.16
2019-04-05T03:12:55.231Z,1002.13
2019-04-05T03:13:55.226Z,1002.12
2019-04-05T03:14:55.209Z,1002.11
2019-04-05T03:15:55.187Z,1002.15
2019-04-05T03:16:55.196Z,1002.17
2019-04-05T03:17:55.199Z,1002.10
2019-04-05T03:18:55.155Z,1002.11
2019-04-05T03:19:55.144Z,1002.16
2019-04-05T03:20:55.132Z,1002.15
2019-04-05T03:21:55.122Z,1002.19
2019-04-05T03:22:55.113Z,1002.16
2019-04-05T03:23:55.126Z,1002.12
2019-04-05T03:24:55.092Z,1002.20
2019-04-05T03:25:55.178Z,1002.18
2019-04-05T03:26:55.064Z,1002.11
2019-04-05T03:27:55.052Z,1002.08
2019-04-05T03:28:55.116Z,1002.11
2019-04-05T03:29:55.059Z,1002.13
2019-04-05T03:30:55.020Z,1002.12
2019-04-05T03:31:55.784Z,1002.02
2019-04-05T03:32:55.001Z,1002.10
2019-04-05T03:33:54.994Z,1002.06
2019-04-05T03:34:54.988Z,1002.12
2019-04-05T03:35:54.993Z,1002.12
2019-04-05T03:36:54.954Z,1002.15
2019-04-05T03:37:54.963Z,1002.16
2019-04-05T03:38:54.935Z,1002.17
2019-04-05T03:39:54.958Z,1002.17
2019-04-05T03:40:54.911Z,1002.17
2019-04-05T03:41:54.904Z,1002.28
2019-04-05T03:42:54.885Z,1002.27
2019-04-05T03:43:54.905Z,1002.30
2019-04-05T03:44:54.869Z,1002.33
2019-04-05T03:45:54.883Z,1002.33
2019-04-05T03:46:57.475Z,1002.34
2019-04-05T03:47:54.852Z,1002.36
2019-04-05T03:48:54.835Z,1002.39
2019-04-05T03:49:54.985Z,1002.36
2019-04-05T03:50:54.798Z,1002.31
2019-04-05T03:51:54.796Z,1002.31
2019-04-05T03:52:54.805Z,1002.36
2019-04-05T03:53:54.766Z,1002.34
2019-04-05T03:54:54.759Z,1002.35
2019-04-05T03:55:54.745Z,1002.34
2019-04-05T03:56:54.741Z,1002.35
2019-04-05T03:57:54.720Z,1002.41
2019-04-05T03:58:54.729Z,1002.38
2019-04-05T03:59:54.739Z,1002.42
2019-04-05T04:00:54.683Z,1002.40
2019-04-05T04:01:54.679Z,1002.38
2019-04-05T04:02:54.667Z,1002.41
2019-04-05T04:03:54.697Z,1002.35
2019-04-05T04:04:54.650Z,1002.38
2019-04-05T04:05:54.779Z,1002.36
2019-04-05T04:06:54.649Z,1002.37
2019-04-05T04:07:54.610Z,1002.39
2019-04-05T04:08:55.300Z,1002.35
2019-04-05T04:09:54.668Z,1002.38
2019-04-05T04:10:54.585Z,1002.32
2019-04-05T04:11:54.566Z,1002.35
2019-04-05T04:12:54.563Z,1002.41
2019-04-05T04:13:54.548Z,1002.33
2019-04-05T04:14:54.563Z,1002.36
2019-04-05T04:15:54.519Z,1002.33
2019-04-05T04:17:10.968Z,1002.33
2019-04-05T04:17:55.495Z,1002.36
2019-04-05T04:18:54.500Z,1002.32
2019-04-05T04:19:54.489Z,1002.31
2019-04-05T04:20:54.510Z,1002.37
2019-04-05T04:21:54.492Z,1002.35
2019-04-05T04:22:54.438Z,1002.36
2019-04-05T04:23:54.437Z,1002.40
2019-04-05T04:24:54.555Z,1002.39
2019-04-05T04:25:54.417Z,1002.40
2019-04-05T04:26:54.400Z,1002.43
2019-04-05T04:27:54.385Z,1002.43
2019-04-05T04:28:54.376Z,1002.37
2019-04-05T04:29:54.411Z,1002.40
2019-04-05T04:30:54.362Z,1002.38
2019-04-05T04:31:54.363Z,1002.39
2019-04-05T04:32:54.362Z,1002.41
2019-04-05T04:33:54.315Z,1002.38
2019-04-05T04:34:54.313Z,1002.45
2019-04-05T04:35:54.335Z,1002.45
2019-04-05T04:36:54.284Z,1002.47
2019-04-05T04:37:54.338Z,1002.47
2019-04-05T04:38:54.275Z,1002.52
2019-04-05T04:39:54.260Z,1002.50
2019-04-05T04:40:54.251Z,1002.52
2019-04-05T04:41:54.231Z,1002.51
2019-04-05T04:42:54.216Z,1002.56
2019-04-05T04:43:54.234Z,1002.60
2019-04-05T04:44:54.195Z,1002.57
2019-04-05T04:45:54.225Z,1002.63
2019-04-05T04:46:54.175Z,1002.61
2019-04-05T04:47:54.164Z,1002.67
2019-04-05T04:48:54.292Z,1002.63
2019-04-05T04:49:54.166Z,1002.67
2019-04-05T04:50:54.128Z,1002.72
2019-04-05T04:51:54.202Z,1002.76
2019-04-05T04:52:54.105Z,1002.76
2019-04-05T04:53:54.113Z,1002.78
2019-04-05T04:54:54.102Z,1002.77
2019-04-05T04:55:54.078Z,1002.80
2019-04-05T04:56:54.815Z,1002.76
2019-04-05T04:57:54.050Z,1002.74
2019-04-05T04:58:54.072Z,1002.74
2019-04-05T04:59:54.033Z,1002.80
2019-04-05T05:00:54.022Z,1002.72
2019-04-05T05:01:54.008Z,1002.75
2019-04-05T05:02:54.021Z,1002.79
2019-04-05T05:03:53.988Z,1002.74
2019-04-05T05:04:53.983Z,1002.76
2019-04-05T05:05:53.962Z,1002.77
2019-04-05T05:06:53.948Z,1002.75
2019-04-05T05:07:54.053Z,1002.77
2019-04-05T05:08:53.955Z,1002.81
2019-04-05T05:09:53.928Z,1002.74
2019-04-05T05:10:53.913Z,1002.71
2019-04-05T05:11:53.956Z,1002.67
2019-04-05T05:12:54.841Z,1002.71
2019-04-05T05:13:53.875Z,1002.72
2019-04-05T05:14:53.873Z,1002.73
2019-04-05T05:15:53.998Z,1002.75
2019-04-05T05:16:53.845Z,1002.88
2019-04-05T05:17:58.748Z,1002.79
2019-04-05T05:18:55.808Z,1002.84
2019-04-05T05:19:53.801Z,1002.80
2019-04-05T05:20:53.792Z,1002.88
2019-04-05T05:21:53.791Z,1002.84
2019-04-05T05:22:53.772Z,1002.84
2019-04-05T05:23:53.766Z,1002.84
2019-04-05T05:24:53.775Z,1002.83
2019-04-05T05:25:53.780Z,1002.92
2019-04-05T05:26:53.728Z,1002.83
2019-04-05T05:27:53.722Z,1002.84
2019-04-05T05:28:53.706Z,1002.85
2019-04-05T05:29:53.693Z,1002.89
2019-04-05T05:30:53.689Z,1002.80
2019-04-05T05:31:53.851Z,1002.80
2019-04-05T05:32:53.661Z,1002.85
2019-04-05T05:33:53.655Z,1002.87
2019-04-05T05:35:02.033Z,1002.86
2019-04-05T05:35:54.630Z,1002.92
2019-04-05T05:36:53.622Z,1002.87
2019-04-05T05:37:53.632Z,1002.94
2019-04-05T05:38:53.593Z,1002.95
2019-04-05T05:39:53.583Z,1002.90
2019-04-05T05:40:53.577Z,1002.86
2019-04-05T05:41:53.561Z,1002.87
2019-04-05T05:42:53.556Z,1002.86
2019-04-05T05:43:53.582Z,1002.89
2019-04-05T05:44:53.533Z,1002.91
2019-04-05T05:45:53.556Z,1002.95
2019-04-05T05:46:53.506Z,1002.89
2019-04-05T05:47:53.496Z,1002.84
2019-04-05T05:48:53.490Z,1002.89
2019-04-05T05:49:53.496Z,1002.91
2019-04-05T05:50:53.565Z,1002.97
2019-04-05T05:51:53.469Z,1002.92
2019-04-05T05:52:53.444Z,1002.96
2019-04-05T05:53:53.429Z,1002.94
2019-04-05T05:54:53.422Z,1002.92
2019-04-05T05:55:53.407Z,1002.86
2019-04-05T05:56:53.448Z,1002.92
2019-04-05T05:57:54.880Z,1002.92
2019-04-05T05:58:57.532Z,1002.90
2019-04-05T05:59:54.386Z,1002.96
2019-04-05T06:00:53.349Z,1003.00
2019-04-05T06:01:53.340Z,1002.97
2019-04-05T06:02:53.360Z,1002.95
2019-04-05T06:03:53.323Z,1002.99
2019-04-05T06:04:53.339Z,1003.00
2019-04-05T06:06:03.637Z,1003.02
2019-04-05T06:06:54.322Z,1003.06
2019-04-05T06:07:53.277Z,1003.04
2019-04-05T06:08:53.267Z,1003.10
2019-04-05T06:09:53.807Z,1003.09
2019-04-05T06:10:53.259Z,1003.09
2019-04-05T06:11:53.298Z,1003.09
2019-04-05T06:12:53.220Z,1003.09
2019-04-05T06:13:53.211Z,1003.16
2019-04-05T06:14:53.196Z,1003.14
2019-04-05T06:15:53.240Z,1003.07
2019-04-05T06:16:53.216Z,1003.13
2019-04-05T06:18:04.209Z,1003.12
2019-04-05T06:18:54.170Z,1003.05
2019-04-05T06:19:53.140Z,1003.09
2019-04-05T06:20:53.129Z,1003.06
2019-04-05T06:21:53.118Z,1003.06
2019-04-05T06:22:53.109Z,1003.05
2019-04-05T06:23:53.113Z,1003.08
2019-04-05T06:24:53.120Z,1003.12
2019-04-05T06:25:53.070Z,1003.09
2019-04-05T06:26:53.061Z,1003.08
2019-04-05T06:27:53.053Z,1003.12
2019-04-05T06:28:53.196Z,1003.16
2019-04-05T06:29:53.057Z,1003.13
2019-04-05T06:30:53.071Z,1003.15
2019-04-05T06:31:53.006Z,1003.14
2019-04-05T06:32:52.999Z,1003.11
2019-04-05T06:33:53.002Z,1003.13
2019-04-05T06:34:52.998Z,1003.12
2019-04-05T06:35:52.968Z,1003.13
2019-04-05T06:36:52.953Z,1003.16
2019-04-05T06:37:52.971Z,1003.20
2019-04-05T06:38:52.926Z,1003.22
2019-04-05T06:39:52.919Z,1003.16
2019-04-05T06:40:52.904Z,1003.18
2019-04-05T06:41:52.905Z,1003.23
2019-04-05T06:42:52.897Z,1003.17
2019-04-05T06:43:52.891Z,1003.21
2019-04-05T06:44:52.872Z,1003.15
2019-04-05T06:45:53.005Z,1003.19
2019-04-05T06:46:52.873Z,1003.15
2019-04-05T06:47:52.830Z,1003.07
2019-04-05T06:48:52.828Z,1003.13
2019-04-05T06:49:52.807Z,1003.18
2019-04-05T06:50:52.850Z,1003.10
2019-04-05T06:51:52.807Z,1003.14
2019-04-05T06:52:52.811Z,1003.11
2019-04-05T06:53:52.771Z,1003.07
2019-04-05T06:54:52.804Z,1003.01
2019-04-05T06:55:52.770Z,1003.03
2019-04-05T06:56:52.746Z,1003.02
2019-04-05T06:57:52.732Z,1003.02
2019-04-05T06:58:52.737Z,1003.08
2019-04-05T06:59:52.689Z,1003.13
2019-04-05T07:00:57.302Z,1003.12
2019-04-05T07:01:52.692Z,1003.13
2019-04-05T07:02:52.664Z,1003.06
2019-04-05T07:03:55.135Z,1003.16
2019-04-05T07:04:52.634Z,1003.13
2019-04-05T07:05:52.657Z,1003.05
2019-04-05T07:06:52.661Z,1002.98
2019-04-05T07:07:52.710Z,1003.01
2019-04-05T07:08:54.035Z,1002.99
2019-04-05T07:09:52.599Z,1002.95
2019-04-05T07:10:52.613Z,1003.03
2019-04-05T07:11:52.592Z,1003.02
2019-04-05T07:12:52.566Z,1003.01
2019-04-05T07:13:52.535Z,1003.00
2019-04-05T07:14:52.534Z,1003.06
2019-04-05T07:15:52.547Z,1003.06
2019-04-05T07:16:52.539Z,1003.05
2019-04-05T07:17:52.506Z,1003.02
2019-04-05T07:18:52.491Z,1003.14
2019-04-05T07:19:52.473Z,1003.06
2019-04-05T07:20:52.473Z,1003.10
2019-04-05T07:21:52.453Z,1003.14
2019-04-05T07:22:52.485Z,1003.19
2019-04-05T07:23:52.442Z,1003.12
2019-04-05T07:24:52.464Z,1003.11
2019-04-05T07:25:52.404Z,1003.13
2019-04-05T07:26:52.468Z,1003.20
2019-04-05T07:27:52.381Z,1003.14
2019-04-05T07:28:52.375Z,1003.13
2019-04-05T07:29:52.362Z,1003.08
2019-04-05T07:30:52.442Z,1003.09
2019-04-05T07:31:52.339Z,1003.09
2019-04-05T07:32:52.329Z,1003.10
2019-04-05T07:33:52.313Z,1003.03
2019-04-05T07:34:52.303Z,1003.03
2019-04-05T07:35:52.302Z,1002.99
2019-04-05T07:36:52.302Z,1003.11
2019-04-05T07:37:52.276Z,1003.02
2019-04-05T07:38:52.285Z,1003.07
2019-04-05T07:39:52.296Z,1003.07
2019-04-05T07:40:52.271Z,1003.12
2019-04-05T07:41:52.221Z,1003.12
2019-04-05T07:42:52.211Z,1003.16
2019-04-05T07:43:52.220Z,1003.11
2019-04-05T07:44:52.225Z,1003.18
2019-04-05T07:45:52.185Z,1003.19
2019-04-05T07:46:52.167Z,1003.19
2019-04-05T07:47:52.297Z,1003.23
2019-04-05T07:48:52.146Z,1003.21
2019-04-05T07:49:52.157Z,1003.24
2019-04-05T07:50:52.153Z,1003.25
2019-04-05T07:51:52.145Z,1003.25
2019-04-05T07:52:52.103Z,1003.26
2019-04-05T07:53:52.090Z,1003.24
2019-04-05T07:54:52.081Z,1003.24
2019-04-05T07:55:52.060Z,1003.24
2019-04-05T07:56:52.079Z,1003.26
2019-04-05T07:57:52.044Z,1003.24
2019-04-05T07:58:52.029Z,1003.25
2019-04-05T07:59:52.020Z,1003.27
2019-04-05T08:00:52.022Z,1003.28
2019-04-05T08:01:51.999Z,1003.25
2019-04-05T08:02:52.010Z,1003.29
2019-04-05T08:03:52.101Z,1003.23
2019-04-05T08:04:54.592Z,1003.26
2019-04-05T08:05:51.961Z,1003.20
2019-04-05T08:06:51.987Z,1003.22
2019-04-05T08:07:59.015Z,1003.23
2019-04-05T08:08:51.923Z,1003.27
2019-04-05T08:09:51.910Z,1003.26
2019-04-05T08:10:51.891Z,1003.28
2019-04-05T08:11:51.889Z,1003.34
2019-04-05T08:12:51.890Z,1003.35
2019-04-05T08:13:51.876Z,1003.33
2019-04-05T08:14:51.858Z,1003.36
2019-04-05T08:15:51.844Z,1003.33
2019-04-05T08:16:52.088Z,1003.34
2019-04-05T08:17:51.826Z,1003.31
2019-04-05T08:18:57.510Z,1003.26
2019-04-05T08:19:52.805Z,1003.31
2019-04-05T08:20:51.806Z,1003.37
2019-04-05T08:21:51.786Z,1003.32
2019-04-05T08:22:51.824Z,1003.33
2019-04-05T08:23:51.758Z,1003.25
2019-04-05T08:24:51.739Z,1003.36
2019-04-05T08:25:51.726Z,1003.30
2019-04-05T08:26:51.723Z,1003.33
2019-04-05T08:27:51.703Z,1003.30
2019-04-05T08:28:51.717Z,1003.30
2019-04-05T08:29:51.743Z,1003.28
2019-04-05T08:30:51.684Z,1003.32
2019-04-05T08:31:51.662Z,1003.32
2019-04-05T08:32:51.645Z,1003.30
2019-04-05T08:33:51.635Z,1003.31
2019-04-05T08:34:51.625Z,1003.36
2019-04-05T08:35:51.652Z,1003.32
2019-04-05T08:36:51.605Z,1003.38
2019-04-05T08:37:51.594Z,1003.34
2019-04-05T08:38:51.591Z,1003.27
2019-04-05T08:39:51.571Z,1003.29
2019-04-05T08:40:51.582Z,1003.31
2019-04-05T08:41:51.553Z,1003.31
2019-04-05T08:42:51.538Z,1003.33
2019-04-05T08:43:51.621Z,1003.28
2019-04-05T08:44:51.544Z,1003.33
2019-04-05T08:45:51.507Z,1003.31
2019-04-05T08:46:51.550Z,1003.34
2019-04-05T08:47:51.493Z,1003.27
2019-04-05T08:48:52.420Z,1003.21
2019-04-05T08:49:51.480Z,1003.38
2019-04-05T08:50:51.447Z,1003.26
2019-04-05T08:51:51.441Z,1003.27
2019-04-05T08:52:51.460Z,1003.24
2019-04-05T08:53:51.410Z,1003.27
2019-04-05T08:54:51.399Z,1003.25
2019-04-05T08:55:51.385Z,1003.29
2019-04-05T08:56:51.408Z,1003.28
2019-04-05T08:57:51.364Z,1003.31
2019-04-05T08:58:51.354Z,1003.29
2019-04-05T08:59:53.379Z,1003.29
2019-04-05T09:00:51.334Z,1003.29
2019-04-05T09:01:51.344Z,1003.28
2019-04-05T09:02:51.928Z,1003.29
2019-04-05T09:03:51.349Z,1003.27
2019-04-05T09:04:51.298Z,1003.31
2019-04-05T09:05:51.282Z,1003.30
2019-04-05T09:06:51.345Z,1003.36
2019-04-05T09:07:51.259Z,1003.33
2019-04-05T09:08:51.244Z,1003.33
2019-04-05T09:09:51.233Z,1003.35
2019-04-05T09:10:51.222Z,1003.32
2019-04-05T09:11:51.217Z,1003.33
2019-04-05T09:12:51.229Z,1003.37
2019-04-05T09:13:51.188Z,1003.38
2019-04-05T09:14:51.208Z,1003.41
2019-04-05T09:15:51.276Z,1003.35
2019-04-05T09:16:51.164Z,1003.39
2019-04-05T09:17:51.201Z,1003.35
2019-04-05T09:18:51.137Z,1003.34
2019-04-05T09:19:53.811Z,1003.33
2019-04-05T09:20:51.144Z,1003.39
2019-04-05T09:21:51.121Z,1003.29
2019-04-05T09:22:51.141Z,1003.30
2019-04-05T09:23:51.146Z,1003.31
2019-04-05T09:24:51.067Z,1003.28
2019-04-05T09:25:51.088Z,1003.29
2019-04-05T09:26:54.014Z,1003.28
2019-04-05T09:27:51.041Z,1003.25
2019-04-05T09:28:51.024Z,1003.23
2019-04-05T09:29:51.017Z,1003.22
2019-04-05T09:30:51.938Z,1003.24
2019-04-05T09:31:50.990Z,1003.27
2019-04-05T09:32:50.977Z,1003.25
2019-04-05T09:33:50.973Z,1003.26
2019-04-05T09:34:50.962Z,1003.31
2019-04-05T09:35:50.947Z,1003.32
2019-04-05T09:36:50.971Z,1003.31
2019-04-05T09:37:50.926Z,1003.25
2019-04-05T09:38:50.913Z,1003.31
2019-04-05T09:39:51.874Z,1003.24
2019-04-05T09:40:50.893Z,1003.23
2019-04-05T09:41:50.875Z,1003.24
2019-04-05T09:42:50.899Z,1003.19
2019-04-05T09:43:50.861Z,1003.12
2019-04-05T09:44:50.845Z,1003.17
2019-04-05T09:45:50.837Z,1003.18
2019-04-05T09:46:51.285Z,1003.16
2019-04-05T09:47:50.833Z,1003.16
2019-04-05T09:48:50.803Z,1003.16
2019-04-05T09:49:50.798Z,1003.25
2019-04-05T09:50:50.783Z,1003.15
2019-04-05T09:51:50.772Z,1003.21
2019-04-05T09:52:50.759Z,1003.26
2019-04-05T09:53:50.781Z,1003.24
2019-04-05T09:54:50.738Z,1003.29
2019-04-05T09:55:50.722Z,1003.24
2019-04-05T09:56:50.723Z,1003.29
2019-04-05T09:57:50.707Z,1003.30
2019-04-05T09:58:50.830Z,1003.26
2019-04-05T09:59:50.801Z,1003.33
2019-04-05T10:00:50.672Z,1003.24
2019-04-05T10:01:50.658Z,1003.28
2019-04-05T10:02:50.660Z,1003.26
2019-04-05T10:03:50.645Z,1003.27
2019-04-05T10:04:50.706Z,1003.31
2019-04-05T10:05:50.650Z,1003.23
2019-04-05T10:06:50.599Z,1003.29
2019-04-05T10:07:55.389Z,1003.20
2019-04-05T10:08:51.578Z,1003.20
2019-04-05T10:09:50.633Z,1003.24
2019-04-05T10:10:50.575Z,1003.26
2019-04-05T10:11:50.546Z,1003.22
2019-04-05T10:12:50.609Z,1003.21
2019-04-05T10:13:50.518Z,1003.21
2019-04-05T10:14:50.510Z,1003.27
2019-04-05T10:15:50.514Z,1003.20
2019-04-05T10:16:50.489Z,1003.23
2019-04-05T10:17:50.484Z,1003.21
2019-04-05T10:18:51.609Z,1003.18
2019-04-05T10:19:51.381Z,1003.18
2019-04-05T10:20:50.445Z,1003.17
2019-04-05T10:21:50.448Z,1003.21
2019-04-05T10:22:50.559Z,1003.14
2019-04-05T10:23:50.414Z,1003.13
2019-04-05T10:24:50.407Z,1003.14
2019-04-05T10:25:50.387Z,1003.08
2019-04-05T10:26:50.383Z,1003.08
2019-04-05T10:27:50.389Z,1003.12
2019-04-05T10:28:50.375Z,1003.07
2019-04-05T10:29:50.348Z,1003.12
2019-04-05T10:30:51.934Z,1003.08
2019-04-05T10:31:50.321Z,1003.11
2019-04-05T10:32:50.311Z,1003.09
2019-04-05T10:33:50.299Z,1003.08
2019-04-05T10:34:50.326Z,1003.11
2019-04-05T10:35:50.890Z,1003.10
2019-04-05T10:36:50.267Z,1003.12
2019-04-05T10:37:50.257Z,1003.12
2019-04-05T10:38:50.248Z,1003.10
2019-04-05T10:39:50.274Z,1003.11
2019-04-05T10:40:50.219Z,1003.09
2019-04-05T10:42:02.402Z,1003.04
2019-04-05T10:42:51.197Z,1003.09
2019-04-05T10:43:50.191Z,1003.09
2019-04-05T10:44:50.176Z,1003.03
2019-04-05T10:45:50.202Z,1003.08
2019-04-05T10:46:50.158Z,1003.11
2019-04-05T10:47:50.150Z,1003.13
2019-04-05T10:48:50.129Z,1003.05
2019-04-05T10:50:02.350Z,1003.08
2019-04-05T10:50:51.136Z,1003.04
2019-04-05T10:51:50.296Z,1003.03
2019-04-05T10:52:50.108Z,1003.03
2019-04-05T10:53:50.082Z,1003.02
2019-04-05T10:54:50.094Z,1003.03
2019-04-05T10:55:50.061Z,1003.03
2019-04-05T10:56:50.042Z,1002.99
2019-04-05T10:57:50.065Z,1003.00
2019-04-05T10:58:50.050Z,1003.02
2019-04-05T10:59:50.011Z,1002.97
2019-04-05T11:00:50.003Z,1002.96
2019-04-05T11:01:49.992Z,1002.92
2019-04-05T11:02:50.000Z,1002.96
2019-04-05T11:03:49.975Z,1002.92
2019-04-05T11:04:49.974Z,1002.98
2019-04-05T11:05:49.934Z,1002.94
2019-04-05T11:06:49.928Z,1002.91
2019-04-05T11:07:49.921Z,1002.89
2019-04-05T11:08:49.915Z,1002.86
2019-04-05T11:09:50.881Z,1002.88
2019-04-05T11:10:49.880Z,1002.89
2019-04-05T11:11:49.878Z,1002.95
2019-04-05T11:12:50.421Z,1002.90
2019-04-05T11:13:49.863Z,1002.95
2019-04-05T11:14:49.893Z,1002.99
2019-04-05T11:15:49.841Z,1003.05
2019-04-05T11:16:58.313Z,1003.08
2019-04-05T11:17:50.838Z,1002.96
2019-04-05T11:18:49.841Z,1003.01
2019-04-05T11:19:49.791Z,1002.97
2019-04-05T11:20:49.905Z,1002.94
2019-04-05T11:21:52.266Z,1002.98
2019-04-05T11:22:50.983Z,1002.96
2019-04-05T11:23:49.789Z,1002.96
2019-04-05T11:24:49.745Z,1002.97
2019-04-05T11:25:49.722Z,1002.96
2019-04-05T11:26:49.709Z,1002.94
2019-04-05T11:27:49.695Z,1003.00
2019-04-05T11:28:49.713Z,1002.99
2019-04-05T11:29:49.669Z,1002.94
2019-04-05T11:30:49.693Z,1002.91
2019-04-05T11:31:57.031Z,1002.92
2019-04-05T11:32:50.637Z,1002.96
2019-04-05T11:33:49.624Z,1002.93
2019-04-05T11:34:49.785Z,1002.92
2019-04-05T11:35:49.637Z,1002.89
2019-04-05T11:36:49.600Z,1002.97
2019-04-05T11:37:50.717Z,1002.98
2019-04-05T11:38:50.882Z,1003.01
2019-04-05T11:39:49.672Z,1002.98
2019-04-05T11:40:49.548Z,1003.00
2019-04-05T11:41:49.556Z,1003.03
2019-04-05T11:42:49.546Z,1003.02
2019-04-05T11:43:49.513Z,1003.01
2019-04-05T11:44:49.536Z,1003.00
2019-04-05T11:45:50.811Z,1002.99
2019-04-05T11:46:49.863Z,1002.97
2019-04-05T11:47:49.463Z,1003.00
2019-04-05T11:48:49.466Z,1003.02
2019-04-05T11:49:49.443Z,1003.03
2019-04-05T11:50:49.457Z,1002.99
2019-04-05T11:51:49.446Z,1003.02
2019-04-05T11:52:49.428Z,1003.03
2019-04-05T11:53:49.405Z,1003.00
2019-04-05T11:54:49.399Z,1002.98
2019-04-05T11:55:49.412Z,1002.97
2019-04-05T11:56:49.397Z,1002.97
2019-04-05T11:57:49.354Z,1002.95
2019-04-05T11:58:49.425Z,1002.95
2019-04-05T11:59:49.329Z,1002.98
2019-04-05T12:00:49.327Z,1002.96
2019-04-05T12:01:49.339Z,1002.98
2019-04-05T12:02:49.294Z,1002.95
2019-04-05T12:03:49.340Z,1002.98
2019-04-05T12:04:49.291Z,1002.90
2019-04-05T12:05:49.272Z,1002.86